Mazar-i-Sharif, Afghanistan
Current Conditions -  °F | °C
As of 8:00 AM on Saturday 20 Dec 2014 (Local Time) from OAMS Reporting Station
Smoke Smoke  
Wind Chill: 39°   Ceiling: 20000
Heat Index: 39°   Visibility: 2.5mi
Dew Point: 34°   Wind: 3mph
Humidity: 81%   Direction: 30°NNE
Pressure: 30.21"   Gusts: NA
Location:  36.7°N, 67.12°E
Report Text: OAMS 200400Z 03003KT 4000 FU SCT150 BKN200 04/01 Q1023 GRN WHT
Loading
Personal Weather Stations






























Interactive Weather Map New forecast layout! Learn more

10-Day Weather Forecast

Advertisements
Track Severe Weather on mobile